createdAt,value
2022-12-28T00:02:20.732Z,2.00
2022-12-28T00:04:51.330Z,2.30
2022-12-28T00:07:24.183Z,2.50
2022-12-28T00:09:56.615Z,2.40
2022-12-28T00:13:36.719Z,2.13
2022-12-28T00:17:41.657Z,2.50
2022-12-28T00:20:13.087Z,2.37
2022-12-28T00:22:41.395Z,1.90
2022-12-28T00:25:10.562Z,2.60
2022-12-28T00:27:38.790Z,2.20
2022-12-28T00:30:09.057Z,3.53
2022-12-28T00:32:37.429Z,2.40
2022-12-28T00:35:06.449Z,2.20
2022-12-28T00:37:36.916Z,2.50
2022-12-28T00:40:07.514Z,2.23
2022-12-28T00:42:35.809Z,2.30
2022-12-28T00:45:05.575Z,2.30
2022-12-28T00:47:33.765Z,2.10
2022-12-28T00:50:02.175Z,2.57
2022-12-28T00:52:30.964Z,2.23
2022-12-28T00:55:00.714Z,2.30
2022-12-28T00:57:28.860Z,2.30
2022-12-28T00:59:57.536Z,2.80
2022-12-28T01:02:25.940Z,2.23
2022-12-28T01:04:54.173Z,2.37
2022-12-28T01:07:22.506Z,2.30
2022-12-28T01:09:50.689Z,2.30
2022-12-28T01:12:20.930Z,1.90
2022-12-28T01:14:50.996Z,2.00
2022-12-28T01:17:19.156Z,2.30
2022-12-28T01:19:53.726Z,2.43
2022-12-28T01:22:22.181Z,2.10
2022-12-28T01:24:50.571Z,2.10
2022-12-28T01:27:20.352Z,2.43
2022-12-28T01:29:48.593Z,2.30
2022-12-28T01:32:18.068Z,2.17
2022-12-28T01:34:46.416Z,2.80
2022-12-28T01:37:14.823Z,2.20
2022-12-28T01:39:43.079Z,2.10
2022-12-28T01:42:16.829Z,2.77
2022-12-28T01:44:48.426Z,2.00
2022-12-28T01:47:20.208Z,2.60
2022-12-28T01:50:03.324Z,2.50
2022-12-28T01:52:35.459Z,2.63
2022-12-28T01:55:07.847Z,2.40
2022-12-28T01:57:41.230Z,2.50
2022-12-28T02:00:13.850Z,2.03
2022-12-28T02:02:50.074Z,2.57
2022-12-28T02:05:18.592Z,2.20
2022-12-28T02:07:53.127Z,2.43
2022-12-28T02:10:43.966Z,2.70
2022-12-28T02:13:11.101Z,2.40
2022-12-28T02:15:40.973Z,2.47
2022-12-28T02:18:09.519Z,2.30
2022-12-28T02:20:44.117Z,2.37
2022-12-28T02:23:35.768Z,2.23
2022-12-28T02:26:37.369Z,2.20
2022-12-28T02:29:44.319Z,2.57
2022-12-28T02:32:22.150Z,2.30
2022-12-28T02:34:57.309Z,2.50
2022-12-28T02:37:28.642Z,2.50
2022-12-28T02:40:00.245Z,2.57
2022-12-28T02:42:30.474Z,2.90
2022-12-28T02:45:15.836Z,3.00
2022-12-28T02:48:07.199Z,2.47
2022-12-28T02:50:45.693Z,2.10
2022-12-28T02:53:40.531Z,2.57
2022-12-28T02:56:14.693Z,2.20
2022-12-28T02:59:19.407Z,2.50
2022-12-28T03:02:05.767Z,2.50
2022-12-28T03:04:43.835Z,2.27
2022-12-28T03:07:36.067Z,2.20
2022-12-28T03:10:11.715Z,2.50
2022-12-28T03:12:46.527Z,2.30
2022-12-28T03:15:29.531Z,2.00
2022-12-28T03:18:19.216Z,2.13
2022-12-28T03:21:06.794Z,2.27
2022-12-28T03:23:52.816Z,2.10
2022-12-28T03:26:39.924Z,2.20
2022-12-28T03:29:27.384Z,2.10
2022-12-28T03:31:56.045Z,2.33
2022-12-28T03:34:25.320Z,2.43
2022-12-28T03:36:59.290Z,2.30
2022-12-28T03:39:36.019Z,2.43
2022-12-28T03:42:29.170Z,2.40
2022-12-28T03:45:03.670Z,2.23
2022-12-28T03:47:33.640Z,2.23
2022-12-28T03:50:02.407Z,2.10
2022-12-28T03:52:33.184Z,2.47
2022-12-28T03:55:02.491Z,1.90
2022-12-28T03:57:49.709Z,1.80
2022-12-28T04:00:23.143Z,1.80
2022-12-28T04:02:54.014Z,1.90
2022-12-28T04:05:22.514Z,2.07
2022-12-28T04:07:53.579Z,2.40
2022-12-28T04:10:21.824Z,2.27
2022-12-28T04:12:50.403Z,1.97
2022-12-28T04:15:37.412Z,1.90
2022-12-28T04:18:06.367Z,1.77
2022-12-28T04:20:34.800Z,2.00
2022-12-28T04:23:05.232Z,1.80
2022-12-28T04:25:34.630Z,2.17
2022-12-28T04:28:03.274Z,1.57
2022-12-28T04:30:58.234Z,1.90
2022-12-28T04:33:26.853Z,1.93
2022-12-28T04:35:55.707Z,1.70
2022-12-28T04:38:25.628Z,1.80
2022-12-28T04:40:53.805Z,1.70
2022-12-28T04:43:22.034Z,2.03
2022-12-28T04:45:57.078Z,2.20
2022-12-28T04:48:25.670Z,1.87
2022-12-28T04:50:54.257Z,1.73
2022-12-28T04:53:22.782Z,1.60
2022-12-28T04:55:52.743Z,1.70
2022-12-28T04:58:20.954Z,1.57
2022-12-28T05:00:49.149Z,1.70
2022-12-28T05:03:17.383Z,1.60
2022-12-28T05:05:45.995Z,1.43
2022-12-28T05:08:14.578Z,1.23
2022-12-28T05:10:42.929Z,1.50
2022-12-28T05:13:12.742Z,1.50
2022-12-28T05:15:40.952Z,1.30
2022-12-28T05:18:09.183Z,1.50
2022-12-28T05:20:37.424Z,1.40
2022-12-28T05:23:05.833Z,1.43
2022-12-28T05:25:33.994Z,1.40
2022-12-28T05:28:02.535Z,1.40
2022-12-28T05:30:32.369Z,1.30
2022-12-28T05:33:00.709Z,1.47
2022-12-28T05:35:28.947Z,1.27
2022-12-28T05:37:57.578Z,1.40
2022-12-28T05:40:26.624Z,1.43
2022-12-28T05:42:55.552Z,1.20
2022-12-28T05:45:24.270Z,1.40
2022-12-28T05:47:55.758Z,1.20
2022-12-28T05:50:25.611Z,1.30
2022-12-28T05:52:54.320Z,1.40
2022-12-28T05:55:22.838Z,1.20
2022-12-28T05:57:51.151Z,1.40
2022-12-28T06:00:19.797Z,1.20
2022-12-28T06:02:48.169Z,1.53
2022-12-28T06:05:18.030Z,1.37
2022-12-28T06:07:46.417Z,1.27
2022-12-28T06:10:14.642Z,1.47
2022-12-28T06:12:44.018Z,1.57
2022-12-28T06:15:12.651Z,1.40
2022-12-28T06:17:41.172Z,1.10
2022-12-28T06:20:10.719Z,1.23
2022-12-28T06:22:40.399Z,1.30
2022-12-28T06:25:09.415Z,1.10
2022-12-28T06:27:37.737Z,1.43
2022-12-28T06:30:06.844Z,1.17
2022-12-28T06:32:35.133Z,1.10
2022-12-28T06:35:03.845Z,1.20
2022-12-28T06:37:32.313Z,1.13
2022-12-28T06:40:02.314Z,1.20
2022-12-28T06:42:30.791Z,1.03
2022-12-28T06:44:59.094Z,1.20
2022-12-28T06:47:27.411Z,1.27
2022-12-28T06:49:56.162Z,1.10
2022-12-28T06:52:24.889Z,1.43
2022-12-28T06:54:53.536Z,1.20
2022-12-28T06:57:23.448Z,1.20
2022-12-28T06:59:51.721Z,1.40
2022-12-28T07:02:20.343Z,1.30
2022-12-28T07:04:48.856Z,1.20
2022-12-28T07:07:17.278Z,1.17
2022-12-28T07:09:45.748Z,1.40
2022-12-28T07:12:14.282Z,1.77
2022-12-28T07:14:44.139Z,1.50
2022-12-28T07:17:12.670Z,1.30
2022-12-28T07:19:40.967Z,1.30
2022-12-28T07:22:09.473Z,1.30
2022-12-28T07:24:37.701Z,1.13
2022-12-28T07:27:06.159Z,1.07
2022-12-28T07:29:34.724Z,1.20
2022-12-28T07:32:04.909Z,1.00
2022-12-28T07:34:33.390Z,1.20
2022-12-28T07:37:01.918Z,1.20
2022-12-28T07:39:30.300Z,1.23
2022-12-28T07:41:58.873Z,0.90
2022-12-28T07:44:30.264Z,1.20
2022-12-28T07:46:59.675Z,1.13
2022-12-28T07:49:29.552Z,1.20
2022-12-28T07:51:58.232Z,1.17
2022-12-28T07:54:26.611Z,2.00
2022-12-28T07:56:54.695Z,1.20
2022-12-28T07:59:27.402Z,1.10
2022-12-28T08:01:59.033Z,1.33
2022-12-28T08:04:27.224Z,1.30
2022-12-28T08:06:56.592Z,1.37
2022-12-28T08:09:24.613Z,1.40
2022-12-28T08:11:52.685Z,1.20
2022-12-28T08:14:20.765Z,0.97
2022-12-28T08:16:48.718Z,1.20
2022-12-28T08:19:16.920Z,1.10
2022-12-28T08:21:45.897Z,1.43
2022-12-28T08:24:17.254Z,1.30
2022-12-28T08:26:45.941Z,1.30
2022-12-28T08:29:15.462Z,1.20
2022-12-28T08:31:45.440Z,1.50
2022-12-28T08:34:16.985Z,1.60
2022-12-28T08:36:45.038Z,1.73
2022-12-28T08:39:14.065Z,1.40
2022-12-28T08:41:43.623Z,1.23
2022-12-28T08:44:11.726Z,1.40
2022-12-28T08:46:40.841Z,1.40
2022-12-28T08:49:09.009Z,1.40
2022-12-28T08:51:39.727Z,1.17
2022-12-28T08:54:08.709Z,1.30
2022-12-28T08:56:37.972Z,1.50
2022-12-28T08:59:07.654Z,1.60
2022-12-28T09:01:43.564Z,1.20
2022-12-28T09:04:14.736Z,1.40
2022-12-28T09:06:43.218Z,1.50
2022-12-28T09:09:13.777Z,1.50
2022-12-28T09:11:41.836Z,1.70
2022-12-28T09:14:20.391Z,1.30
2022-12-28T09:16:51.184Z,1.30
2022-12-28T09:19:19.866Z,1.40
2022-12-28T09:21:49.268Z,1.40
2022-12-28T09:24:17.866Z,1.70
2022-12-28T09:26:45.970Z,1.50
2022-12-28T09:29:15.799Z,1.30
2022-12-28T09:31:44.376Z,1.20
2022-12-28T09:37:02.095Z,1.07
2022-12-28T09:39:30.316Z,1.30
2022-12-28T09:42:00.246Z,1.23
2022-12-28T09:44:36.643Z,1.23
2022-12-28T09:47:12.597Z,1.30
2022-12-28T09:49:44.579Z,1.30
2022-12-28T09:52:25.688Z,1.13
2022-12-28T09:54:54.035Z,1.23
2022-12-28T09:57:22.568Z,1.37
2022-12-28T09:59:53.107Z,1.27
2022-12-28T10:02:25.170Z,1.40
2022-12-28T10:04:53.421Z,1.03
2022-12-28T10:07:21.683Z,1.37
2022-12-28T10:09:49.952Z,1.10
2022-12-28T10:12:21.509Z,1.53
2022-12-28T10:14:50.491Z,1.13
2022-12-28T10:17:22.385Z,1.50
2022-12-28T10:19:50.471Z,1.10
2022-12-28T10:22:21.078Z,1.17
2022-12-28T10:24:49.465Z,1.33
2022-12-28T10:27:22.766Z,1.17
2022-12-28T10:29:51.645Z,1.23
2022-12-28T10:32:21.451Z,1.50
2022-12-28T10:34:57.216Z,1.90
2022-12-28T10:37:26.506Z,1.43
2022-12-28T10:39:56.977Z,1.83
2022-12-28T10:42:27.800Z,1.47
2022-12-28T10:45:00.012Z,1.60
2022-12-28T10:47:34.188Z,1.40
2022-12-28T10:50:36.233Z,1.60
2022-12-28T10:52:57.927Z,1.60
2022-12-28T10:55:30.477Z,1.70
2022-12-28T10:58:33.427Z,1.40
2022-12-28T11:01:04.858Z,1.70
2022-12-28T11:03:36.979Z,1.50
2022-12-28T11:06:18.828Z,1.70
2022-12-28T11:09:03.622Z,1.33
2022-12-28T11:11:31.884Z,1.13
2022-12-28T11:14:04.569Z,1.20
2022-12-28T11:16:36.258Z,1.40
2022-12-28T11:19:05.933Z,1.60
2022-12-28T11:21:37.620Z,1.60
2022-12-28T11:24:06.461Z,1.63
2022-12-28T11:26:35.108Z,1.50
2022-12-28T11:29:03.615Z,1.47
2022-12-28T11:31:34.553Z,1.97
2022-12-28T11:34:06.813Z,1.40
2022-12-28T11:36:43.946Z,1.53
2022-12-28T11:39:32.523Z,1.60
2022-12-28T11:44:54.442Z,1.30
2022-12-28T11:47:31.213Z,1.10
2022-12-28T11:50:34.604Z,1.40
2022-12-28T11:53:12.197Z,2.00
2022-12-28T11:55:50.826Z,1.50
2022-12-28T11:58:55.104Z,1.40
2022-12-28T12:02:01.389Z,1.40
2022-12-28T12:04:35.481Z,2.23
2022-12-28T12:07:23.664Z,2.27
2022-12-28T12:10:33.939Z,1.53
2022-12-28T12:13:05.298Z,1.37
2022-12-28T12:15:41.518Z,1.33
2022-12-28T12:18:19.262Z,1.73
2022-12-28T12:20:53.343Z,1.30
2022-12-28T12:23:29.742Z,1.40
2022-12-28T12:26:02.168Z,1.73
2022-12-28T12:28:37.697Z,1.30
2022-12-28T12:31:09.667Z,1.37
2022-12-28T12:33:39.281Z,1.27
2022-12-28T12:36:23.153Z,1.60
2022-12-28T12:39:26.348Z,1.30
2022-12-28T12:42:03.213Z,1.10
2022-12-28T12:44:39.052Z,1.30
2022-12-28T12:47:27.647Z,1.57
2022-12-28T12:50:22.678Z,1.50
2022-12-28T12:52:56.910Z,1.73
2022-12-28T12:55:36.578Z,1.60
2022-12-28T12:58:11.179Z,1.40
2022-12-28T13:00:48.842Z,1.50
2022-12-28T13:03:21.569Z,1.30
2022-12-28T13:05:54.728Z,1.00
2022-12-28T13:08:26.956Z,1.43
2022-12-28T13:10:55.911Z,1.40
2022-12-28T13:13:31.497Z,1.17
2022-12-28T13:16:04.171Z,1.40
2022-12-28T13:18:48.369Z,1.10
2022-12-28T13:21:20.360Z,1.30
2022-12-28T13:23:49.504Z,1.20
2022-12-28T13:26:18.385Z,1.17
2022-12-28T13:28:52.426Z,1.50
2022-12-28T13:31:22.503Z,1.30
2022-12-28T13:33:58.115Z,1.47
2022-12-28T13:36:27.051Z,1.20
2022-12-28T13:39:05.109Z,1.70
2022-12-28T13:41:36.444Z,1.60
2022-12-28T13:44:31.775Z,1.60
2022-12-28T13:47:04.798Z,1.67
2022-12-28T13:49:38.033Z,1.47
2022-12-28T13:52:12.303Z,1.33
2022-12-28T13:54:41.113Z,1.40
2022-12-28T13:57:44.828Z,1.67
2022-12-28T14:00:00.673Z,1.77
2022-12-28T14:02:30.110Z,1.63
2022-12-28T14:04:58.515Z,1.50
2022-12-28T14:07:29.232Z,1.37
2022-12-28T14:09:58.557Z,2.00
2022-12-28T14:12:26.976Z,1.50
2022-12-28T14:14:56.162Z,1.70
2022-12-28T14:17:26.143Z,1.60
2022-12-28T14:19:57.711Z,1.60
2022-12-28T14:22:27.993Z,1.57
2022-12-28T14:25:00.940Z,1.87
2022-12-28T14:27:29.390Z,1.60
2022-12-28T14:30:01.486Z,1.37
2022-12-28T14:35:28.576Z,1.67
2022-12-28T14:38:13.972Z,1.37
2022-12-28T14:40:51.279Z,1.80
2022-12-28T14:43:25.985Z,1.60
2022-12-28T14:46:07.485Z,1.77
2022-12-28T14:48:43.319Z,1.90
2022-12-28T14:51:26.345Z,1.63
2022-12-28T14:54:18.195Z,1.50
2022-12-28T14:56:50.102Z,1.60
2022-12-28T14:59:31.467Z,1.60
2022-12-28T15:02:03.719Z,1.40
2022-12-28T15:04:38.580Z,1.43
2022-12-28T15:07:10.642Z,1.70
2022-12-28T15:09:39.662Z,1.50
2022-12-28T15:12:15.555Z,1.70
2022-12-28T15:14:44.676Z,1.57
2022-12-28T15:17:13.269Z,1.80
2022-12-28T15:19:45.121Z,1.70
2022-12-28T15:22:13.855Z,1.20
2022-12-28T15:24:45.308Z,1.50
2022-12-28T15:27:14.662Z,1.70
2022-12-28T15:32:32.081Z,1.33
2022-12-28T15:35:01.613Z,1.30
2022-12-28T15:37:29.773Z,1.30
2022-12-28T15:39:58.302Z,1.43
2022-12-28T15:42:26.644Z,1.30
2022-12-28T15:44:54.867Z,1.53
2022-12-28T15:47:23.376Z,1.37
2022-12-28T15:49:53.164Z,1.37
2022-12-28T15:52:23.582Z,1.70
2022-12-28T15:54:56.119Z,1.60
2022-12-28T15:57:25.292Z,1.20
2022-12-28T15:59:55.112Z,1.33
2022-12-28T16:02:24.801Z,1.40
2022-12-28T16:04:54.440Z,1.40
2022-12-28T16:07:24.630Z,1.37
2022-12-28T16:09:53.507Z,1.50
2022-12-28T16:12:31.687Z,1.50
2022-12-28T16:15:00.376Z,1.43
2022-12-28T16:17:33.117Z,1.27
2022-12-28T16:20:01.867Z,1.30
2022-12-28T16:22:32.353Z,1.57
2022-12-28T16:25:04.408Z,1.70
2022-12-28T16:27:33.954Z,1.60
2022-12-28T16:30:13.293Z,1.43
2022-12-28T16:32:48.807Z,1.33
2022-12-28T16:35:20.768Z,1.37
2022-12-28T16:37:57.044Z,1.60
2022-12-28T16:40:31.459Z,1.43
2022-12-28T16:43:04.119Z,1.50
2022-12-28T16:45:39.133Z,1.47
2022-12-28T16:48:09.575Z,1.37
2022-12-28T16:50:41.048Z,1.47
2022-12-28T16:53:16.248Z,1.60
2022-12-28T16:55:50.127Z,1.57
2022-12-28T16:58:26.479Z,1.30
2022-12-28T17:01:02.081Z,1.60
2022-12-28T17:03:34.840Z,1.67
2022-12-28T17:06:06.100Z,1.43
2022-12-28T17:08:37.715Z,1.37
2022-12-28T17:11:10.735Z,1.60
2022-12-28T17:13:45.210Z,1.43
2022-12-28T17:16:19.305Z,1.40
2022-12-28T17:18:49.863Z,1.60
2022-12-28T17:21:18.336Z,1.80
2022-12-28T17:23:48.153Z,1.60
2022-12-28T17:26:16.848Z,1.60
2022-12-28T17:28:45.161Z,1.33
2022-12-28T17:31:15.596Z,1.60
2022-12-28T17:33:47.427Z,1.40
2022-12-28T17:36:18.740Z,1.77
2022-12-28T17:38:48.460Z,1.60
2022-12-28T17:41:18.607Z,1.60
2022-12-28T17:46:40.780Z,1.60
2022-12-28T17:49:09.355Z,1.33
2022-12-28T17:51:37.627Z,1.40
2022-12-28T17:54:07.145Z,1.60
2022-12-28T17:56:35.401Z,1.60
2022-12-28T17:59:03.580Z,1.70
2022-12-28T18:01:31.777Z,1.70
2022-12-28T18:04:00.737Z,1.57
2022-12-28T18:06:28.723Z,1.70
2022-12-28T18:08:56.985Z,1.47
2022-12-28T18:11:26.647Z,1.60
2022-12-28T18:13:56.226Z,2.27
2022-12-28T18:16:24.514Z,1.87
2022-12-28T18:18:52.838Z,1.50
2022-12-28T18:21:23.161Z,1.77
2022-12-28T18:23:53.444Z,1.60
2022-12-28T18:26:23.113Z,1.60
2022-12-28T18:28:53.015Z,1.20
2022-12-28T18:31:21.530Z,1.40
2022-12-28T18:33:49.900Z,1.77
2022-12-28T18:36:18.892Z,1.47
2022-12-28T18:38:47.906Z,1.50
2022-12-28T18:41:17.166Z,1.50
2022-12-28T18:43:45.402Z,1.40
2022-12-28T18:46:15.218Z,1.30
2022-12-28T18:48:43.440Z,1.47
2022-12-28T18:51:13.469Z,1.40
2022-12-28T18:53:41.731Z,1.47
2022-12-28T18:56:12.202Z,1.33
2022-12-28T18:58:41.444Z,1.50
2022-12-28T19:01:32.493Z,1.47
2022-12-28T19:04:01.816Z,1.20
2022-12-28T19:06:30.442Z,1.40
2022-12-28T19:09:00.002Z,1.50
2022-12-28T19:11:29.306Z,1.40
2022-12-28T19:13:57.803Z,1.63
2022-12-28T19:16:30.954Z,1.60
2022-12-28T19:19:01.592Z,1.20
2022-12-28T19:21:30.953Z,1.70
2022-12-28T19:24:03.055Z,1.50
2022-12-28T19:26:32.668Z,1.57
2022-12-28T19:29:01.030Z,1.30
2022-12-28T19:31:29.207Z,1.60
2022-12-28T19:33:57.659Z,1.40
2022-12-28T19:36:27.279Z,1.60
2022-12-28T19:38:56.165Z,1.67
2022-12-28T19:41:24.822Z,1.60
2022-12-28T19:43:53.300Z,1.40
2022-12-28T19:46:22.574Z,1.40
2022-12-28T19:48:53.871Z,1.27
2022-12-28T19:51:27.176Z,1.40
2022-12-28T19:54:00.282Z,1.30
2022-12-28T19:56:28.715Z,1.70
2022-12-28T19:59:04.976Z,1.70
2022-12-28T20:01:35.260Z,1.80
2022-12-28T20:04:10.478Z,1.47
2022-12-28T20:06:40.928Z,1.50
2022-12-28T20:09:10.590Z,1.50
2022-12-28T20:11:39.063Z,1.50
2022-12-28T20:14:07.589Z,1.53
2022-12-28T20:16:36.497Z,1.90
2022-12-28T20:19:07.126Z,1.60
2022-12-28T20:21:36.010Z,1.83
2022-12-28T20:24:04.863Z,1.50
2022-12-28T20:26:34.398Z,1.63
2022-12-28T20:29:02.945Z,1.30
2022-12-28T20:31:31.167Z,1.70
2022-12-28T20:33:59.442Z,1.70
2022-12-28T20:36:28.899Z,1.70
2022-12-28T20:38:57.697Z,1.80
2022-12-28T20:41:44.792Z,1.47
2022-12-28T20:44:17.242Z,1.50
2022-12-28T20:46:45.940Z,2.07
2022-12-28T20:49:14.235Z,1.67
2022-12-28T20:51:43.150Z,1.63
2022-12-28T20:54:11.681Z,1.70
2022-12-28T20:56:41.896Z,1.93
2022-12-28T20:59:10.749Z,2.00
2022-12-28T21:01:40.826Z,1.80
2022-12-28T21:04:09.910Z,1.90
2022-12-28T21:06:38.250Z,1.90
2022-12-28T21:09:06.399Z,2.23
2022-12-28T21:11:34.649Z,1.90
2022-12-28T21:14:03.272Z,2.00
2022-12-28T21:16:31.444Z,2.00
2022-12-28T21:19:00.976Z,2.00
2022-12-28T21:21:29.439Z,1.80
2022-12-28T21:23:57.670Z,1.70
2022-12-28T21:26:25.966Z,1.50
2022-12-28T21:28:54.274Z,1.73
2022-12-28T21:31:22.444Z,1.77
2022-12-28T21:33:50.501Z,2.00
2022-12-28T21:36:20.535Z,1.67
2022-12-28T21:38:50.053Z,1.70
2022-12-28T21:41:41.503Z,1.60
2022-12-28T21:44:11.689Z,1.70
2022-12-28T21:46:40.059Z,1.47
2022-12-28T21:49:09.002Z,1.60
2022-12-28T21:51:39.378Z,1.70
2022-12-28T21:54:08.901Z,1.50
2022-12-28T21:56:37.513Z,1.97
2022-12-28T21:59:06.312Z,1.40
2022-12-28T22:01:52.536Z,1.53
2022-12-28T22:04:40.116Z,1.57
2022-12-28T22:07:11.932Z,1.37
2022-12-28T22:09:57.927Z,1.40
2022-12-28T22:12:35.959Z,1.50
2022-12-28T22:15:27.283Z,1.30
2022-12-28T22:17:56.584Z,1.40
2022-12-28T22:20:25.211Z,1.20
2022-12-28T22:22:56.108Z,1.27
2022-12-28T22:25:24.838Z,1.20
2022-12-28T22:27:53.114Z,1.03
2022-12-28T22:30:21.442Z,1.27
2022-12-28T22:32:49.481Z,1.20
2022-12-28T22:35:17.931Z,1.10
2022-12-28T22:37:46.190Z,1.20
2022-12-28T22:40:15.825Z,1.20
2022-12-28T22:42:44.700Z,1.10
2022-12-28T22:45:14.179Z,0.90
2022-12-28T22:47:42.494Z,1.13
2022-12-28T22:50:12.420Z,1.17
2022-12-28T22:52:40.769Z,1.07
2022-12-28T22:55:09.682Z,1.10
2022-12-28T22:57:39.388Z,1.00
2022-12-28T23:00:11.011Z,1.00
2022-12-28T23:02:39.553Z,0.93
2022-12-28T23:05:08.175Z,1.10
2022-12-28T23:07:38.471Z,0.90
2022-12-28T23:10:07.869Z,0.90
2022-12-28T23:12:36.158Z,0.90
2022-12-28T23:15:19.910Z,1.13
2022-12-28T23:17:49.736Z,1.00
2022-12-28T23:20:36.380Z,0.90
2022-12-28T23:23:22.263Z,0.90
2022-12-28T23:26:07.755Z,0.90
2022-12-28T23:28:37.163Z,0.70
2022-12-28T23:31:06.914Z,1.00
2022-12-28T23:33:36.624Z,0.90
2022-12-28T23:36:05.644Z,0.90
2022-12-28T23:38:34.380Z,0.90
2022-12-28T23:41:26.083Z,0.90
2022-12-28T23:43:54.214Z,0.90
2022-12-28T23:46:23.994Z,0.70
2022-12-28T23:48:52.195Z,0.77
2022-12-28T23:51:20.573Z,0.70
2022-12-28T23:53:48.732Z,0.60
2022-12-28T23:56:16.825Z,0.80
2022-12-28T23:58:44.903Z,0.80
